sensor_id;sensor_type;location;lat;lon;timestamp;pressure;altitude;pressure_sealevel;temperature;humidity
3178;BME280;38141;42.666;23.344;2023-04-01T00:00:59;93780.34;;;12.06;86.42
3178;BME280;38141;42.666;23.344;2023-04-01T00:03:27;93774.53;;;12.07;86.07
3178;BME280;38141;42.666;23.344;2023-04-01T00:05:54;93811.28;;;11.85;88.56
3178;BME280;38141;42.666;23.344;2023-04-01T00:08:22;93793.03;;;11.89;90.19
3178;BME280;38141;42.666;23.344;2023-04-01T00:10:50;93799.50;;;11.95;89.59
3178;BME280;38141;42.666;23.344;2023-04-01T00:13:17;93797.69;;;11.88;87.47
3178;BME280;38141;42.666;23.344;2023-04-01T00:15:44;93793.66;;;11.96;85.92
3178;BME280;38141;42.666;23.344;2023-04-01T00:18:11;93805.63;;;11.76;86.08
3178;BME280;38141;42.666;23.344;2023-04-01T00:20:39;93806.72;;;11.51;87.04
3178;BME280;38141;42.666;23.344;2023-04-01T00:23:05;93786.19;;;11.27;88.01
3178;BME280;38141;42.666;23.344;2023-04-01T00:25:32;93759.69;;;11.15;87.66
3178;BME280;38141;42.666;23.344;2023-04-01T00:28:01;93812.50;;;11.27;88.03
3178;BME280;38141;42.666;23.344;2023-04-01T00:30:27;93816.41;;;11.22;88.62
3178;BME280;38141;42.666;23.344;2023-04-01T00:33:02;93745.25;;;10.95;88.67
3178;BME280;38141;42.666;23.344;2023-04-01T00:35:30;93703.66;;;10.85;87.52
3178;BME280;38141;42.666;23.344;2023-04-01T00:37:57;93732.50;;;10.95;86.71
3178;BME280;38141;42.666;23.344;2023-04-01T00:40:27;93800.88;;;11.30;88.58
3178;BME280;38141;42.666;23.344;2023-04-01T00:42:54;93788.13;;;11.27;89.84
3178;BME280;38141;42.666;23.344;2023-04-01T00:45:34;93782.09;;;11.42;89.25
3178;BME280;38141;42.666;23.344;2023-04-01T00:48:04;93775.81;;;11.76;89.49
3178;BME280;38141;42.666;23.344;2023-04-01T00:50:33;93776.34;;;11.64;90.45
3178;BME280;38141;42.666;23.344;2023-04-01T00:53:01;93754.22;;;11.69;87.48
3178;BME280;38141;42.666;23.344;2023-04-01T00:55:30;93768.69;;;11.85;87.49
3178;BME280;38141;42.666;23.344;2023-04-01T00:58:00;93775.75;;;11.79;91.43
3178;BME280;38141;42.666;23.344;2023-04-01T01:00:28;93769.56;;;11.79;88.14
3178;BME280;38141;42.666;23.344;2023-04-01T01:02:58;93756.72;;;11.83;87.18
3178;BME280;38141;42.666;23.344;2023-04-01T01:05:33;93725.19;;;11.46;89.06
3178;BME280;38141;42.666;23.344;2023-04-01T01:08:15;93732.16;;;11.20;92.39
3178;BME280;38141;42.666;23.344;2023-04-01T01:10:44;93755.63;;;11.27;91.31
3178;BME280;38141;42.666;23.344;2023-04-01T01:13:19;93743.31;;;11.22;92.23
3178;BME280;38141;42.666;23.344;2023-04-01T01:15:54;93738.22;;;11.28;93.26
3178;BME280;38141;42.666;23.344;2023-04-01T01:18:34;93726.75;;;11.20;92.91
3178;BME280;38141;42.666;23.344;2023-04-01T01:24:25;93711.91;;;11.28;89.43
3178;BME280;38141;42.666;23.344;2023-04-01T01:27:00;93728.38;;;11.14;89.08
3178;BME280;38141;42.666;23.344;2023-04-01T01:29:42;93723.91;;;11.27;88.80
3178;BME280;38141;42.666;23.344;2023-04-01T01:32:20;93684.16;;;10.97;90.24
3178;BME280;38141;42.666;23.344;2023-04-01T01:37:25;93709.53;;;11.34;92.84
3178;BME280;38141;42.666;23.344;2023-04-01T01:39:56;93657.34;;;11.06;93.30
3178;BME280;38141;42.666;23.344;2023-04-01T01:42:26;93714.81;;;11.41;91.18
3178;BME280;38141;42.666;23.344;2023-04-01T01:44:55;93712.00;;;11.48;85.69
3178;BME280;38141;42.666;23.344;2023-04-01T01:47:25;93678.97;;;11.33;85.86
3178;BME280;38141;42.666;23.344;2023-04-01T01:49:54;93715.41;;;11.52;84.88
3178;BME280;38141;42.666;23.344;2023-04-01T01:52:21;93705.28;;;11.33;85.31
3178;BME280;38141;42.666;23.344;2023-04-01T01:54:50;93697.31;;;11.45;81.84
3178;BME280;38141;42.666;23.344;2023-04-01T01:57:20;93695.81;;;11.44;81.61
3178;BME280;38141;42.666;23.344;2023-04-01T01:59:49;93678.50;;;11.38;81.64
3178;BME280;38141;42.666;23.344;2023-04-01T02:02:19;93668.53;;;11.32;81.43
3178;BME280;38141;42.666;23.344;2023-04-01T02:04:47;93673.97;;;11.55;76.52
3178;BME280;38141;42.666;23.344;2023-04-01T02:07:16;93675.22;;;11.74;75.06
3178;BME280;38141;42.666;23.344;2023-04-01T02:09:45;93683.09;;;11.88;74.45
3178;BME280;38141;42.666;23.344;2023-04-01T02:12:15;93661.69;;;11.70;77.87
3178;BME280;38141;42.666;23.344;2023-04-01T02:14:46;93674.84;;;11.72;92.44
3178;BME280;38141;42.666;23.344;2023-04-01T02:17:15;93674.56;;;11.66;93.21
3178;BME280;38141;42.666;23.344;2023-04-01T02:19:47;93650.59;;;11.41;92.27
3178;BME280;38141;42.666;23.344;2023-04-01T02:22:18;93669.84;;;11.70;74.68
3178;BME280;38141;42.666;23.344;2023-04-01T02:24:48;93668.25;;;11.49;91.54
3178;BME280;38141;42.666;23.344;2023-04-01T02:27:18;93670.25;;;11.45;88.26
3178;BME280;38141;42.666;23.344;2023-04-01T02:29:46;93659.09;;;11.63;87.23
3178;BME280;38141;42.666;23.344;2023-04-01T02:32:14;93670.78;;;11.60;86.61
3178;BME280;38141;42.666;23.344;2023-04-01T02:34:42;93678.44;;;11.65;82.18
3178;BME280;38141;42.666;23.344;2023-04-01T02:37:10;93669.94;;;11.63;78.63
3178;BME280;38141;42.666;23.344;2023-04-01T02:39:37;93667.00;;;11.77;79.42
3178;BME280;38141;42.666;23.344;2023-04-01T02:42:04;93675.63;;;11.72;82.35
3178;BME280;38141;42.666;23.344;2023-04-01T02:44:34;93680.78;;;11.63;86.32
3178;BME280;38141;42.666;23.344;2023-04-01T02:47:01;93676.31;;;11.53;87.60
3178;BME280;38141;42.666;23.344;2023-04-01T02:49:28;93652.91;;;11.43;84.51
3178;BME280;38141;42.666;23.344;2023-04-01T02:51:54;93694.91;;;11.28;90.67
3178;BME280;38141;42.666;23.344;2023-04-01T02:54:21;93694.56;;;11.26;84.19
3178;BME280;38141;42.666;23.344;2023-04-01T02:56:48;93676.56;;;11.39;83.25
3178;BME280;38141;42.666;23.344;2023-04-01T02:59:15;93689.56;;;11.71;82.65
3178;BME280;38141;42.666;23.344;2023-04-01T03:01:43;93700.00;;;11.72;81.58
3178;BME280;38141;42.666;23.344;2023-04-01T03:04:10;93715.00;;;11.53;83.54
3178;BME280;38141;42.666;23.344;2023-04-01T03:06:36;93627.56;;;10.83;89.28
3178;BME280;38141;42.666;23.344;2023-04-01T03:09:03;93714.41;;;11.66;84.52
3178;BME280;38141;42.666;23.344;2023-04-01T03:11:30;93704.69;;;11.68;83.39
3178;BME280;38141;42.666;23.344;2023-04-01T03:14:00;93699.38;;;11.38;89.47
3178;BME280;38141;42.666;23.344;2023-04-01T03:16:26;93710.53;;;11.43;92.36
3178;BME280;38141;42.666;23.344;2023-04-01T03:18:55;93729.69;;;11.29;97.04
3178;BME280;38141;42.666;23.344;2023-04-01T03:21:24;93702.94;;;11.35;93.32
3178;BME280;38141;42.666;23.344;2023-04-01T03:23:51;93709.56;;;11.30;94.35
3178;BME280;38141;42.666;23.344;2023-04-01T03:26:18;93725.63;;;11.41;95.94
3178;BME280;38141;42.666;23.344;2023-04-01T03:28:45;93716.41;;;11.38;97.34
3178;BME280;38141;42.666;23.344;2023-04-01T03:31:12;93732.38;;;11.56;95.10
3178;BME280;38141;42.666;23.344;2023-04-01T03:33:38;93719.06;;;11.42;100.00
3178;BME280;38141;42.666;23.344;2023-04-01T03:36:07;93730.06;;;11.54;100.00
3178;BME280;38141;42.666;23.344;2023-04-01T03:38:34;93720.38;;;11.57;100.00
3178;BME280;38141;42.666;23.344;2023-04-01T03:41:01;93730.13;;;11.51;100.00
3178;BME280;38141;42.666;23.344;2023-04-01T03:43:28;93721.91;;;11.58;100.00
3178;BME280;38141;42.666;23.344;2023-04-01T03:45:55;93697.41;;;11.65;96.66
3178;BME280;38141;42.666;23.344;2023-04-01T03:48:23;93682.25;;;11.68;100.00
3178;BME280;38141;42.666;23.344;2023-04-01T03:50:50;93680.44;;;11.61;100.00
3178;BME280;38141;42.666;23.344;2023-04-01T03:53:18;93664.03;;;11.48;100.00
3178;BME280;38141;42.666;23.344;2023-04-01T03:55:45;93648.56;;;11.45;99.33
3178;BME280;38141;42.666;23.344;2023-04-01T03:58:12;93636.75;;;11.36;100.00
3178;BME280;38141;42.666;23.344;2023-04-01T04:00:39;93632.06;;;11.40;99.65
3178;BME280;38141;42.666;23.344;2023-04-01T04:03:06;93610.97;;;11.28;98.53
3178;BME280;38141;42.666;23.344;2023-04-01T04:05:33;93618.69;;;11.29;97.09
3178;BME280;38141;42.666;23.344;2023-04-01T04:08:00;93606.81;;;11.23;99.04
3178;BME280;38141;42.666;23.344;2023-04-01T04:10:29;93614.16;;;11.23;99.42
3178;BME280;38141;42.666;23.344;2023-04-01T04:12:56;93598.03;;;11.39;96.61
3178;BME280;38141;42.666;23.344;2023-04-01T04:15:23;93601.03;;;11.44;94.66
3178;BME280;38141;42.666;23.344;2023-04-01T04:17:50;93585.91;;;11.24;92.76
3178;BME280;38141;42.666;23.344;2023-04-01T04:20:16;93569.75;;;10.97;90.49
3178;BME280;38141;42.666;23.344;2023-04-01T04:22:43;93584.84;;;11.18;90.70
3178;BME280;38141;42.666;23.344;2023-04-01T04:25:10;93574.97;;;11.31;86.09
3178;BME280;38141;42.666;23.344;2023-04-01T04:27:38;93584.66;;;11.28;85.73
3178;BME280;38141;42.666;23.344;2023-04-01T04:30:06;93566.63;;;11.22;86.05
3178;BME280;38141;42.666;23.344;2023-04-01T04:32:33;93539.84;;;11.04;86.42
3178;BME280;38141;42.666;23.344;2023-04-01T04:35:00;93575.22;;;11.17;84.34
3178;BME280;38141;42.666;23.344;2023-04-01T04:37:27;93561.91;;;11.26;84.78
3178;BME280;38141;42.666;23.344;2023-04-01T04:39:53;93557.81;;;11.37;82.80
3178;BME280;38141;42.666;23.344;2023-04-01T04:42:20;93552.00;;;11.39;83.12
3178;BME280;38141;42.666;23.344;2023-04-01T04:44:48;93523.88;;;11.33;80.94
3178;BME280;38141;42.666;23.344;2023-04-01T04:47:15;93534.84;;;11.65;78.98
3178;BME280;38141;42.666;23.344;2023-04-01T04:49:42;93534.94;;;11.62;79.30
3178;BME280;38141;42.666;23.344;2023-04-01T04:52:09;93539.25;;;11.79;78.55
3178;BME280;38141;42.666;23.344;2023-04-01T04:54:36;93539.53;;;11.84;77.84
3178;BME280;38141;42.666;23.344;2023-04-01T04:57:03;93523.41;;;11.77;78.29
3178;BME280;38141;42.666;23.344;2023-04-01T04:59:30;93521.81;;;11.80;79.75
3178;BME280;38141;42.666;23.344;2023-04-01T05:01:58;93533.44;;;11.80;79.17
3178;BME280;38141;42.666;23.344;2023-04-01T05:04:25;93537.75;;;11.54;81.98
3178;BME280;38141;42.666;23.344;2023-04-01T05:06:52;93532.50;;;11.47;88.28
3178;BME280;38141;42.666;23.344;2023-04-01T05:09:19;93458.88;;;11.13;87.53
3178;BME280;38141;42.666;23.344;2023-04-01T05:11:45;93523.81;;;11.56;89.48
3178;BME280;38141;42.666;23.344;2023-04-01T05:14:13;93520.00;;;11.73;87.62
3178;BME280;38141;42.666;23.344;2023-04-01T05:16:41;93520.06;;;11.70;86.06
3178;BME280;38141;42.666;23.344;2023-04-01T05:19:09;93523.19;;;11.88;83.52
3178;BME280;38141;42.666;23.344;2023-04-01T05:21:37;93513.53;;;11.87;84.32
3178;BME280;38141;42.666;23.344;2023-04-01T05:24:07;93502.91;;;11.96;82.91
3178;BME280;38141;42.666;23.344;2023-04-01T05:26:34;93495.63;;;11.73;82.44
3178;BME280;38141;42.666;23.344;2023-04-01T05:29:02;93468.03;;;11.58;81.04
3178;BME280;38141;42.666;23.344;2023-04-01T05:31:29;93485.53;;;11.54;81.39
3178;BME280;38141;42.666;23.344;2023-04-01T05:33:56;93498.09;;;11.64;81.90
3178;BME280;38141;42.666;23.344;2023-04-01T05:36:24;93496.09;;;11.68;78.31
3178;BME280;38141;42.666;23.344;2023-04-01T05:38:54;93492.19;;;11.69;81.95
3178;BME280;38141;42.666;23.344;2023-04-01T05:41:21;93498.41;;;11.89;80.92
3178;BME280;38141;42.666;23.344;2023-04-01T05:43:48;93505.78;;;12.05;82.38
3178;BME280;38141;42.666;23.344;2023-04-01T05:46:15;93506.22;;;12.03;80.20
3178;BME280;38141;42.666;23.344;2023-04-01T05:48:42;93499.75;;;12.66;75.94
3178;BME280;38141;42.666;23.344;2023-04-01T05:51:12;93483.91;;;14.08;65.08
3178;BME280;38141;42.666;23.344;2023-04-01T05:53:41;93493.50;;;16.01;57.45
3178;BME280;38141;42.666;23.344;2023-04-01T05:56:08;93479.88;;;17.75;51.33
3178;BME280;38141;42.666;23.344;2023-04-01T05:58:35;93478.38;;;18.77;48.99
3178;BME280;38141;42.666;23.344;2023-04-01T06:01:02;93454.03;;;20.32;45.88
3178;BME280;38141;42.666;23.344;2023-04-01T06:03:29;93442.91;;;19.83;45.39
3178;BME280;38141;42.666;23.344;2023-04-01T06:05:56;93476.06;;;20.23;43.61
3178;BME280;38141;42.666;23.344;2023-04-01T06:08:24;93484.69;;;19.63;43.65
3178;BME280;38141;42.666;23.344;2023-04-01T06:11:04;93482.53;;;18.63;45.82
3178;BME280;38141;42.666;23.344;2023-04-01T06:13:56;93484.69;;;18.50;46.20
3178;BME280;38141;42.666;23.344;2023-04-01T06:16:39;93461.75;;;18.47;46.26
3178;BME280;38141;42.666;23.344;2023-04-01T06:19:27;93486.84;;;18.55;45.67
3178;BME280;38141;42.666;23.344;2023-04-01T06:22:28;93477.13;;;17.48;46.98
3178;BME280;38141;42.666;23.344;2023-04-01T06:25:25;93471.94;;;17.41;47.13
3178;BME280;38141;42.666;23.344;2023-04-01T06:28:05;93488.31;;;17.05;48.33
3178;BME280;38141;42.666;23.344;2023-04-01T06:30:38;93480.31;;;17.47;48.27
3178;BME280;38141;42.666;23.344;2023-04-01T06:33:19;93448.25;;;17.84;47.01
3178;BME280;38141;42.666;23.344;2023-04-01T06:36:06;93465.34;;;18.20;46.21
3178;BME280;38141;42.666;23.344;2023-04-01T06:38:47;93463.38;;;18.21;45.83
3178;BME280;38141;42.666;23.344;2023-04-01T06:41:53;93469.69;;;17.40;48.02
3178;BME280;38141;42.666;23.344;2023-04-01T06:44:33;93371.75;;;16.25;49.39
3178;BME280;38141;42.666;23.344;2023-04-01T06:47:11;93393.16;;;15.96;51.12
3178;BME280;38141;42.666;23.344;2023-04-01T06:49:49;93371.44;;;15.31;52.95
3178;BME280;38141;42.666;23.344;2023-04-01T06:52:23;93391.09;;;15.13;54.86
3178;BME280;38141;42.666;23.344;2023-04-01T06:54:57;93435.66;;;15.41;55.15
3178;BME280;38141;42.666;23.344;2023-04-01T06:57:30;93412.03;;;15.16;56.70
3178;BME280;38141;42.666;23.344;2023-04-01T07:00:02;93353.31;;;14.93;56.40
3178;BME280;38141;42.666;23.344;2023-04-01T07:02:43;93431.09;;;15.38;57.27
3178;BME280;38141;42.666;23.344;2023-04-01T07:05:11;93420.84;;;15.20;58.24
3178;BME280;38141;42.666;23.344;2023-04-01T07:07:43;93400.88;;;14.67;60.01
3178;BME280;38141;42.666;23.344;2023-04-01T07:10:14;93366.53;;;14.48;60.03
3178;BME280;38141;42.666;23.344;2023-04-01T07:12:47;93436.53;;;14.94;60.27
3178;BME280;38141;42.666;23.344;2023-04-01T07:15:21;93398.69;;;14.96;60.35
3178;BME280;38141;42.666;23.344;2023-04-01T07:17:53;93397.16;;;15.08;59.50
3178;BME280;38141;42.666;23.344;2023-04-01T07:20:25;93401.31;;;15.43;59.52
3178;BME280;38141;42.666;23.344;2023-04-01T07:22:56;93412.53;;;15.67;58.67
3178;BME280;38141;42.666;23.344;2023-04-01T07:25:29;93405.59;;;15.44;58.92
3178;BME280;38141;42.666;23.344;2023-04-01T07:28:01;93421.63;;;15.64;59.25
3178;BME280;38141;42.666;23.344;2023-04-01T07:30:44;93410.69;;;15.42;59.61
3178;BME280;38141;42.666;23.344;2023-04-01T07:33:18;93424.47;;;15.61;59.28
3178;BME280;38141;42.666;23.344;2023-04-01T07:35:50;93428.03;;;15.70;59.47
3178;BME280;38141;42.666;23.344;2023-04-01T07:38:26;93404.28;;;15.80;58.35
3178;BME280;38141;42.666;23.344;2023-04-01T07:41:05;93427.56;;;15.72;59.44
3178;BME280;38141;42.666;23.344;2023-04-01T07:43:46;93432.19;;;15.84;60.12
3178;BME280;38141;42.666;23.344;2023-04-01T07:46:29;93415.66;;;16.18;58.80
3178;BME280;38141;42.666;23.344;2023-04-01T07:49:04;93366.56;;;15.78;59.16
3178;BME280;38141;42.666;23.344;2023-04-01T07:51:41;93396.59;;;15.87;60.06
3178;BME280;38141;42.666;23.344;2023-04-01T07:54:14;93403.59;;;16.28;59.37
3178;BME280;38141;42.666;23.344;2023-04-01T07:56:48;93352.69;;;15.64;60.01
3178;BME280;38141;42.666;23.344;2023-04-01T07:59:22;93334.16;;;15.80;60.26
3178;BME280;38141;42.666;23.344;2023-04-01T08:02:01;93412.88;;;16.49;58.76
3178;BME280;38141;42.666;23.344;2023-04-01T08:04:39;93422.91;;;16.43;58.42
3178;BME280;38141;42.666;23.344;2023-04-01T08:07:13;93401.63;;;16.29;62.56
3178;BME280;38141;42.666;23.344;2023-04-01T08:09:45;93405.78;;;16.52;62.30
3178;BME280;38141;42.666;23.344;2023-04-01T08:12:23;93366.69;;;16.15;59.54
3178;BME280;38141;42.666;23.344;2023-04-01T08:15:03;93384.59;;;16.16;59.96
3178;BME280;38141;42.666;23.344;2023-04-01T08:17:42;93383.00;;;15.96;60.62
3178;BME280;38141;42.666;23.344;2023-04-01T08:20:19;93370.47;;;16.17;62.24
3178;BME280;38141;42.666;23.344;2023-04-01T08:22:51;93381.00;;;16.37;59.30
3178;BME280;38141;42.666;23.344;2023-04-01T08:25:24;93367.72;;;16.57;58.91
3178;BME280;38141;42.666;23.344;2023-04-01T08:27:57;93364.59;;;16.86;57.61
3178;BME280;38141;42.666;23.344;2023-04-01T08:30:30;93371.72;;;17.20;56.75
3178;BME280;38141;42.666;23.344;2023-04-01T08:33:08;93303.59;;;16.98;55.48
3178;BME280;38141;42.666;23.344;2023-04-01T08:35:40;93331.34;;;17.15;56.59
3178;BME280;38141;42.666;23.344;2023-04-01T08:38:12;93319.19;;;17.25;55.30
3178;BME280;38141;42.666;23.344;2023-04-01T08:40:55;93317.75;;;17.66;54.59
3178;BME280;38141;42.666;23.344;2023-04-01T08:43:33;93314.16;;;17.93;52.76
3178;BME280;38141;42.666;23.344;2023-04-01T08:46:26;93306.88;;;18.13;51.93
3178;BME280;38141;42.666;23.344;2023-04-01T08:49:09;93308.03;;;18.78;50.55
3178;BME280;38141;42.666;23.344;2023-04-01T08:54:54;93276.72;;;19.23;48.58
3178;BME280;38141;42.666;23.344;2023-04-01T08:57:35;93314.16;;;20.90;45.54
3178;BME280;38141;42.666;23.344;2023-04-01T09:00:14;93298.13;;;23.13;42.11
3178;BME280;38141;42.666;23.344;2023-04-01T09:03:02;93314.56;;;23.67;40.66
3178;BME280;38141;42.666;23.344;2023-04-01T09:08:38;93309.47;;;20.35;44.86
3178;BME280;38141;42.666;23.344;2023-04-01T09:11:18;93295.25;;;19.87;44.60
3178;BME280;38141;42.666;23.344;2023-04-01T09:17:14;93285.59;;;19.18;45.69
3178;BME280;38141;42.666;23.344;2023-04-01T09:20:00;93275.16;;;18.54;46.74
3178;BME280;38141;42.666;23.344;2023-04-01T09:22:44;93303.09;;;19.21;46.02
3178;BME280;38141;42.666;23.344;2023-04-01T09:25:27;93297.72;;;19.12;45.59
3178;BME280;38141;42.666;23.344;2023-04-01T09:28:03;93301.84;;;19.22;45.43
3178;BME280;38141;42.666;23.344;2023-04-01T09:30:46;93282.81;;;19.57;44.04
3178;BME280;38141;42.666;23.344;2023-04-01T09:36:33;93270.47;;;19.08;43.20
3178;BME280;38141;42.666;23.344;2023-04-01T09:39:26;93266.50;;;19.38;43.71
3178;BME280;38141;42.666;23.344;2023-04-01T09:42:13;93268.59;;;19.29;43.92
3178;BME280;38141;42.666;23.344;2023-04-01T09:44:47;93255.66;;;19.44;43.42
3178;BME280;38141;42.666;23.344;2023-04-01T09:47:29;93239.09;;;19.24;43.45
3178;BME280;38141;42.666;23.344;2023-04-01T09:50:17;93244.09;;;19.25;43.69
3178;BME280;38141;42.666;23.344;2023-04-01T09:52:57;93246.84;;;19.54;42.93
3178;BME280;38141;42.666;23.344;2023-04-01T10:11:19;93225.38;;;20.03;42.52
3178;BME280;38141;42.666;23.344;2023-04-01T10:14:22;93213.06;;;19.63;43.34
3178;BME280;38141;42.666;23.344;2023-04-01T10:17:32;93218.38;;;19.37;44.34
3178;BME280;38141;42.666;23.344;2023-04-01T10:20:09;93217.06;;;19.62;44.47
3178;BME280;38141;42.666;23.344;2023-04-01T10:23:27;93202.00;;;19.43;44.63
3178;BME280;38141;42.666;23.344;2023-04-01T10:26:29;93205.78;;;19.31;45.45
3178;BME280;38141;42.666;23.344;2023-04-01T10:29:24;93200.59;;;19.18;45.57
3178;BME280;38141;42.666;23.344;2023-04-01T10:35:29;93212.50;;;19.00;45.77
3178;BME280;38141;42.666;23.344;2023-04-01T10:38:28;93170.91;;;18.73;45.96
3178;BME280;38141;42.666;23.344;2023-04-01T10:44:26;93199.38;;;18.13;47.18
3178;BME280;38141;42.666;23.344;2023-04-01T10:50:25;93170.66;;;18.32;46.92
3178;BME280;38141;42.666;23.344;2023-04-01T10:56:33;93166.03;;;18.62;46.66
3178;BME280;38141;42.666;23.344;2023-04-01T11:05:37;93141.38;;;18.23;47.21
3178;BME280;38141;42.666;23.344;2023-04-01T11:24:03;93142.88;;;18.25;45.40
3178;BME280;38141;42.666;23.344;2023-04-01T11:26:41;93162.88;;;18.31;42.68
3178;BME280;38141;42.666;23.344;2023-04-01T11:29:19;93138.34;;;18.36;42.01
3178;BME280;38141;42.666;23.344;2023-04-01T11:31:58;93173.13;;;18.30;42.55
3178;BME280;38141;42.666;23.344;2023-04-01T11:34:42;93200.31;;;18.10;43.46
3178;BME280;38141;42.666;23.344;2023-04-01T11:37:24;93176.97;;;17.43;47.73
3178;BME280;38141;42.666;23.344;2023-04-01T11:40:03;93133.09;;;17.05;49.27
3178;BME280;38141;42.666;23.344;2023-04-01T11:42:40;93226.47;;;17.45;49.04
3178;BME280;38141;42.666;23.344;2023-04-01T11:45:23;93251.09;;;17.36;49.71
3178;BME280;38141;42.666;23.344;2023-04-01T11:48:07;93296.16;;;16.89;55.43
3178;BME280;38141;42.666;23.344;2023-04-01T11:50:46;93297.31;;;16.34;59.78
3178;BME280;38141;42.666;23.344;2023-04-01T11:53:27;93259.91;;;14.84;75.77
3178;BME280;38141;42.666;23.344;2023-04-01T11:56:24;93379.28;;;14.73;100.00
3178;BME280;38141;42.666;23.344;2023-04-01T11:59:05;93370.34;;;14.25;100.00
3178;BME280;38141;42.666;23.344;2023-04-01T12:01:43;93395.28;;;14.11;100.00
3178;BME280;38141;42.666;23.344;2023-04-01T12:04:37;93407.22;;;14.01;100.00
3178;BME280;38141;42.666;23.344;2023-04-01T12:07:15;93396.47;;;13.97;100.00
3178;BME280;38141;42.666;23.344;2023-04-01T12:09:53;93327.50;;;13.41;100.00
3178;BME280;38141;42.666;23.344;2023-04-01T12:12:32;93333.84;;;13.09;100.00
3178;BME280;38141;42.666;23.344;2023-04-01T12:15:15;93382.78;;;13.21;100.00
3178;BME280;38141;42.666;23.344;2023-04-01T12:17:46;93365.09;;;13.29;100.00
3178;BME280;38141;42.666;23.344;2023-04-01T12:20:33;93381.00;;;13.69;100.00
3178;BME280;38141;42.666;23.344;2023-04-01T12:23:14;93371.66;;;13.82;100.00
3178;BME280;38141;42.666;23.344;2023-04-01T12:26:00;93373.63;;;14.07;100.00
3178;BME280;38141;42.666;23.344;2023-04-01T12:28:41;93382.28;;;14.53;100.00
3178;BME280;38141;42.666;23.344;2023-04-01T12:31:27;93372.31;;;14.37;100.00
3178;BME280;38141;42.666;23.344;2023-04-01T12:37:08;93350.41;;;14.53;100.00
3178;BME280;38141;42.666;23.344;2023-04-01T12:39:56;93370.41;;;14.59;100.00
3178;BME280;38141;42.666;23.344;2023-04-01T12:42:40;93390.03;;;14.89;100.00
3178;BME280;38141;42.666;23.344;2023-04-01T12:45:28;93392.75;;;14.42;100.00
3178;BME280;38141;42.666;23.344;2023-04-01T12:48:23;93392.34;;;13.93;100.00
3178;BME280;38141;42.666;23.344;2023-04-01T12:54:19;93375.56;;;13.56;100.00
3178;BME280;38141;42.666;23.344;2023-04-01T12:57:04;93362.72;;;13.03;100.00
3178;BME280;38141;42.666;23.344;2023-04-01T12:59:58;93379.53;;;13.26;100.00
3178;BME280;38141;42.666;23.344;2023-04-01T13:02:40;93352.94;;;13.47;100.00
3178;BME280;38141;42.666;23.344;2023-04-01T13:05:28;93342.81;;;12.93;100.00
3178;BME280;38141;42.666;23.344;2023-04-01T13:08:17;93338.75;;;13.14;100.00
3178;BME280;38141;42.666;23.344;2023-04-01T13:11:02;93351.31;;;12.66;100.00
3178;BME280;38141;42.666;23.344;2023-04-01T13:14:03;93324.25;;;12.91;100.00
3178;BME280;38141;42.666;23.344;2023-04-01T13:16:39;93238.78;;;12.83;100.00
3178;BME280;38141;42.666;23.344;2023-04-01T13:19:16;93278.06;;;13.71;100.00
3178;BME280;38141;42.666;23.344;2023-04-01T13:22:01;93289.16;;;14.23;100.00
3178;BME280;38141;42.666;23.344;2023-04-01T13:24:45;93270.44;;;14.38;100.00
3178;BME280;38141;42.666;23.344;2023-04-01T13:27:18;93295.78;;;14.48;100.00
3178;BME280;38141;42.666;23.344;2023-04-01T13:30:02;93298.84;;;14.72;100.00
3178;BME280;38141;42.666;23.344;2023-04-01T13:32:53;93287.31;;;15.42;100.00
3178;BME280;38141;42.666;23.344;2023-04-01T13:35:33;93287.72;;;15.62;100.00
3178;BME280;38141;42.666;23.344;2023-04-01T13:38:48;93283.25;;;15.86;100.00
3178;BME280;38141;42.666;23.344;2023-04-01T13:41:26;93271.16;;;15.96;100.00
3178;BME280;38141;42.666;23.344;2023-04-01T13:44:00;93163.84;;;14.83;100.00
3178;BME280;38141;42.666;23.344;2023-04-01T13:46:47;93247.28;;;15.30;100.00
3178;BME280;38141;42.666;23.344;2023-04-01T13:49:33;93237.53;;;15.50;100.00
3178;BME280;38141;42.666;23.344;2023-04-01T13:52:23;93251.44;;;15.43;100.00
3178;BME280;38141;42.666;23.344;2023-04-01T13:55:31;93256.38;;;15.36;100.00
3178;BME280;38141;42.666;23.344;2023-04-01T13:58:23;93238.78;;;15.28;100.00
3178;BME280;38141;42.666;23.344;2023-04-01T14:01:03;93253.09;;;15.81;100.00
3178;BME280;38141;42.666;23.344;2023-04-01T14:03:45;93245.09;;;15.95;100.00
3178;BME280;38141;42.666;23.344;2023-04-01T14:06:26;93219.59;;;15.40;97.13
3178;BME280;38141;42.666;23.344;2023-04-01T14:09:24;93211.75;;;15.42;97.01
3178;BME280;38141;42.666;23.344;2023-04-01T14:12:04;93222.59;;;15.64;96.92
3178;BME280;38141;42.666;23.344;2023-04-01T14:14:46;93199.47;;;15.38;94.90
3178;BME280;38141;42.666;23.344;2023-04-01T14:20:33;93206.22;;;15.55;100.00
3178;BME280;38141;42.666;23.344;2023-04-01T14:23:31;93201.69;;;15.21;100.00
3178;BME280;38141;42.666;23.344;2023-04-01T14:26:22;93202.16;;;15.29;100.00
3178;BME280;38141;42.666;23.344;2023-04-01T14:28:56;93201.56;;;15.25;100.00
3178;BME280;38141;42.666;23.344;2023-04-01T14:31:42;93205.25;;;15.40;100.00
3178;BME280;38141;42.666;23.344;2023-04-01T14:34:27;93201.97;;;14.61;100.00
3178;BME280;38141;42.666;23.344;2023-04-01T14:37:17;93200.13;;;14.37;100.00
3178;BME280;38141;42.666;23.344;2023-04-01T14:40:27;93188.28;;;14.31;100.00
3178;BME280;38141;42.666;23.344;2023-04-01T14:43:01;93183.72;;;14.27;100.00
3178;BME280;38141;42.666;23.344;2023-04-01T14:46:08;93209.75;;;14.50;100.00
3178;BME280;38141;42.666;23.344;2023-04-01T14:48:51;93197.09;;;14.78;100.00
3178;BME280;38141;42.666;23.344;2023-04-01T14:51:22;93203.16;;;14.82;100.00
3178;BME280;38141;42.666;23.344;2023-04-01T14:54:00;93130.59;;;14.36;100.00
3178;BME280;38141;42.666;23.344;2023-04-01T14:56:38;93133.56;;;14.29;100.00
3178;BME280;38141;42.666;23.344;2023-04-01T14:59:09;93189.59;;;14.91;100.00
3178;BME280;38141;42.666;23.344;2023-04-01T15:01:57;93186.44;;;14.93;100.00